Mobile Downtown Airport
KBFM : now visible

Airfield :











YOU CAN JOIN US ON...

 
LOGIN :

Register | Disclaimer

   EN    FR    IT 

 









Legend :    VFR   Marginal VFR   IFR   Intensive IFR   Very Intensive IFR
Visi :
Ceiling :
>= 8 km
>= 3000ft
5 to 8 km
1000 to 3000 ft
1500m to 5 km
500 to 1000 ft
800 to 1500m
200 to 500 ft
< 800m
< 200 ft
Symbols :   Thunderstorms  Fog  Heavy snow  Heavy precipitations  Wind > 20 kt






- Airport Elevation : 26 ft


KBFM - Mobile Downtown

CURRENT METAR :
  • 081953Z 07004KT 9SM -RA OVC011 19/17 A3008 RMK AO2 RAB47 SLP185 P0000 T01890167

EXPIRED METARs :
  • 081853Z 10007KT 10SM OVC014 19/17 A3009 RMK AO2 RAB28E47 SLP188 P0000 T01940167
  • 081753Z 09007KT 10SM OVC016 20/16 A3012 RMK AO2 SLP200 T02000161 10200 20150 58018

TAF KBFM
Valid from the 08 at 18:00 until the 09 at 18:00 UTC


081728Z 0818/0918 09008KT P6SM OVC015
FM082200 13006KT P6SM VCSH BKN050
FM090000 15005KT 3SM BR SCT015 BKN040
FM090600 VRB04KT 1/4SM FG SCT010 BKN080
FM091200 24004KT 3SM BR BKN015
FM091500 22007KT P6SM BKN040



MET'MAP, your aeronautical weather chart ! - Copyright ORBIFLY December 2007 - Disclaimer

ORBIFLY MET'MAP TEAM :

Programming & Development : Alexandra Zaïnal
Concept & original design : Baudouin d'Aumeries
Assistance for programming : Marc-Olivier Méhu
Technical & hardware support : Manuel Goepfert

Contact : metmap@orbifly.com




SOURCES & CREDITS :

   NOAA       Earth
Advisory